Time;durP1;ratioP1;P1;durP2;ratioP2;P2;SDS_P1;SDS_P2;PMS_P1;PMS_P2;Temp;Humidity;BMP_temperature;BMP_pressure;BME280_temperature;BME280_humidity;BME280_pressure;Samples;Min_cycle;Max_cycle;Signal;HPM_P1;HPM_P2
2022/04/14 00:01:52;;;;;;;34.92;20.40;;;11.10;99.90;;;;;;5113192;28;20491;-70
2022/04/14 00:04:18;;;;;;;27.05;18.00;;;;;;;;;;5095266;28;20078;-70
2022/04/14 00:06:44;;;;;;;29.70;18.98;;;;;;;;;;5113517;28;20051;-70
2022/04/14 00:09:10;;;;;;;26.05;18.52;;;;;;;;;;5113450;28;20079;-70
2022/04/14 00:11:38;;;;;;;29.98;18.25;;;;;;;;;;5094981;28;20099;-70
2022/04/14 00:14:05;;;;;;;26.00;16.80;;;10.50;99.90;;;;;;5095136;28;20111;-70
2022/04/14 00:16:30;;;;;;;31.58;19.23;;;11.30;99.90;;;;;;5095058;28;20097;-70
2022/04/14 00:18:56;;;;;;;28.85;18.60;;;;;;;;;;5113318;28;20043;-70
2022/04/14 00:21:22;;;;;;;27.42;17.52;;;10.40;99.90;;;;;;5113140;28;20048;-70
2022/04/14 00:23:48;;;;;;;30.08;18.30;;;;;;;;;;5094900;28;20121;-70
2022/04/14 00:26:15;;;;;;;34.20;19.83;;;10.60;99.90;;;;;;5112869;28;20054;-70
2022/04/14 00:28:40;;;;;;;27.38;18.67;;;10.60;99.90;;;;;;5112904;28;20039;-70
2022/04/14 00:31:06;;;;;;;29.83;19.55;;;;;;;;;;5112736;28;20207;-70
2022/04/14 00:33:32;;;;;;;33.58;19.98;;;10.80;99.90;;;;;;5095147;28;20406;-71
2022/04/14 00:35:58;;;;;;;38.42;21.10;;;10.60;99.90;;;;;;5113107;28;20054;-71
2022/04/14 00:38:24;;;;;;;35.00;22.42;;;;;;;;;;5112631;28;20044;-70
2022/04/14 00:40:55;;;;;;;37.03;21.17;;;10.60;99.90;;;;;;5112973;28;20058;-71
2022/04/14 00:43:21;;;;;;;40.58;21.70;;;;;;;;;;5094335;28;20105;-71
2022/04/14 00:45:49;;;;;;;36.28;21.40;;;10.50;99.90;;;;;;5112744;28;20042;-71
2022/04/14 00:48:15;;;;;;;31.23;20.65;;;;;;;;;;5112831;28;20094;-70
2022/04/14 00:50:41;;;;;;;33.72;19.90;;;10.40;99.90;;;;;;5112871;28;20035;-70
2022/04/14 00:53:07;;;;;;;36.35;21.73;;;;;;;;;;5112325;28;20555;-71
2022/04/14 00:55:32;;;;;;;31.48;19.83;;;10.70;99.90;;;;;;5112586;28;20032;-70
2022/04/14 00:57:58;;;;;;;29.90;19.92;;;;;;;;;;5112661;28;20039;-70
2022/04/14 01:00:38;;;;;;;34.00;19.80;;;10.50;99.90;;;;;;5106338;22;20110;-75
2022/04/14 01:03:05;;;;;;;38.58;20.48;;;10.70;99.90;;;;;;5069657;28;20044;-77
2022/04/14 01:05:31;;;;;;;32.92;19.95;;;10.50;99.90;;;;;;5054504;28;20037;-77
2022/04/14 01:07:58;;;;;;;31.90;19.92;;;;;;;;;;5053835;28;20049;-64
2022/04/14 01:10:25;;;;;;;28.13;18.80;;;10.50;99.90;;;;;;5071709;28;20475;-64
2022/04/14 01:12:53;;;;;;;33.30;20.30;;;10.30;99.90;;;;;;5054146;28;20045;-64
2022/04/14 01:15:19;;;;;;;34.63;20.75;;;;;;;;;;5072012;28;20157;-65
2022/04/14 01:17:45;;;;;;;36.25;21.13;;;;;;;;;;5072172;28;20044;-64
2022/04/14 01:20:14;;;;;;;37.38;21.52;;;10.40;99.90;;;;;;5071670;28;20451;-64
2022/04/14 01:23:02;;;;;;;33.67;20.38;;;10.50;99.90;;;;;;5071882;28;20082;-64
2022/04/14 01:25:29;;;;;;;28.65;19.70;;;10.40;99.90;;;;;;5071430;28;20044;-64
2022/04/14 01:27:55;;;;;;;30.73;20.10;;;10.10;99.90;;;;;;5072043;28;20066;-64
2022/04/14 01:30:22;;;;;;;34.53;20.17;;;10.60;99.90;;;;;;5071554;28;20036;-64
2022/04/14 01:32:51;;;;;;;38.58;21.65;;;10.30;99.90;;;;;;5071004;28;20071;-64
2022/04/14 01:35:17;;;;;;;33.90;21.33;;;10.20;99.90;;;;;;5071585;28;20395;-64
2022/04/14 01:37:43;;;;;;;39.05;22.10;;;;;;;;;;5071403;28;20045;-64
2022/04/14 01:40:09;;;;;;;41.65;23.45;;;;;;;;;;5071336;28;20131;-64
2022/04/14 01:42:35;;;;;;;37.97;21.80;;;;;;;;;;5071325;28;20445;-65
2022/04/14 01:45:01;;;;;;;41.05;24.42;;;10.30;99.90;;;;;;5071119;28;20041;-64
2022/04/14 01:47:26;;;;;;;42.15;26.77;;;10.80;99.90;;;;;;5071383;28;20090;-64
2022/04/14 01:49:52;;;;;;;37.22;23.77;;;;;;;;;;5071359;28;20107;-64
2022/04/14 01:52:18;;;;;;;39.15;24.55;;;;;;;;;;5071216;28;20090;-65
2022/04/14 01:54:45;;;;;;;49.55;26.63;;;10.30;99.90;;;;;;5071143;28;20040;-64
2022/04/14 01:57:11;;;;;;;34.42;23.00;;;9.60;99.90;;;;;;5053108;28;20461;-64
2022/04/14 01:59:37;;;;;;;33.70;22.13;;;;;;;;;;5053659;28;20376;-64
2022/04/14 02:02:03;;;;;;;32.53;21.75;;;;;;;;;;5070698;28;20067;-64
2022/04/14 02:04:29;;;;;;;36.55;23.05;;;9.80;99.90;;;;;;5071242;28;20040;-64
2022/04/14 02:06:56;;;;;;;45.08;25.98;;;9.80;99.90;;;;;;5071227;28;20494;-64
2022/04/14 02:09:24;;;;;;;41.83;24.25;;;9.20;99.90;;;;;;5053268;28;20484;-64
2022/04/14 02:11:50;;;;;;;41.80;25.90;;;;;;;;;;5071214;28;20040;-64
2022/04/14 02:14:16;;;;;;;47.10;27.23;;;;;;;;;;5052846;28;20403;-64
2022/04/14 02:16:42;;;;;;;47.22;28.25;;;;;;;;;;5070867;28;20487;-64
2022/04/14 02:19:07;;;;;;;43.55;28.17;;;10.60;99.90;;;;;;5071438;28;20120;-64
2022/04/14 02:21:33;;;;;;;58.22;31.15;;;;;;;;;;5071079;28;20040;-64
2022/04/14 02:23:59;;;;;;;49.08;28.73;;;9.80;99.90;;;;;;5070753;28;20037;-64
2022/04/14 02:26:29;;;;;;;47.80;29.17;;;9.50;99.90;;;;;;5071146;28;20044;-64
2022/04/14 02:28:55;;;;;;;46.40;27.25;;;;;;;;;;5071240;28;20369;-64
2022/04/14 02:31:21;;;;;;;38.75;25.67;;;9.90;99.90;;;;;;5071008;28;20399;-64
2022/04/14 02:33:47;;;;;;;49.53;29.00;;;9.50;99.90;;;;;;5071006;28;20048;-64
2022/04/14 02:36:14;;;;;;;39.00;25.60;;;9.50;99.90;;;;;;5070969;28;20121;-64
2022/04/14 02:38:43;;;;;;;43.15;26.10;;;;;;;;;;5070995;28;20423;-64
2022/04/14 02:41:12;;;;;;;44.17;27.50;;;8.90;99.90;;;;;;5071084;28;20040;-64
2022/04/14 02:43:39;;;;;;;43.58;26.50;;;;;;;;;;5070788;28;20044;-64
2022/04/14 02:46:05;;;;;;;44.20;27.80;;;9.60;99.90;;;;;;5073344;28;20082;-65
2022/04/14 02:48:32;;;;;;;48.80;29.92;;;9.50;99.90;;;;;;5074717;28;20033;-64
2022/04/14 02:50:58;;;;;;;43.22;27.35;;;9.20;99.90;;;;;;5075056;28;20036;-64
2022/04/14 02:53:24;;;;;;;51.10;27.90;;;;;;;;;;5074758;28;20071;-64
2022/04/14 02:55:51;;;;;;;39.67;25.95;;;;;;;;;;5074514;28;20059;-64
2022/04/14 02:58:17;;;;;;;52.72;30.40;;;;;;;;;;5056601;28;20550;-64
2022/04/14 03:00:43;;;;;;;52.97;28.80;;;;;;;;;;5074996;28;20403;-64
2022/04/14 03:03:10;;;;;;;40.47;26.23;;;;;;;;;;5074670;28;20048;-64
2022/04/14 03:05:36;;;;;;;46.72;28.70;;;9.60;99.90;;;;;;5039576;28;20127;-64
2022/04/14 03:08:05;;;;;;;42.55;26.58;;;9.20;99.90;;;;;;5040111;28;20044;-64
2022/04/14 03:10:32;;;;;;;51.75;29.75;;;9.20;99.90;;;;;;5074457;28;20063;-64
2022/04/14 03:12:58;;;;;;;43.63;28.00;;;;;;;;;;5056461;28;20051;-64
2022/04/14 03:15:23;;;;;;;47.22;26.48;;;9.20;99.90;;;;;;5074338;28;20032;-64
2022/04/14 03:17:50;;;;;;;37.58;25.50;;;;;;;;;;5074549;28;20040;-64
2022/04/14 03:20:18;;;;;;;46.95;28.58;;;;;;;;;;5056176;28;20055;-64
2022/04/14 03:22:44;;;;;;;48.42;29.15;;;9.10;99.90;;;;;;5074363;28;20394;-64
2022/04/14 03:25:11;;;;;;;45.53;28.08;;;9.00;99.90;;;;;;5073774;28;20197;-64
2022/04/14 03:27:37;;;;;;;45.15;28.85;;;9.30;99.90;;;;;;5074085;28;20032;-64
2022/04/14 03:30:05;;;;;;;43.72;27.83;;;9.70;99.90;;;;;;5074109;28;20048;-64
2022/04/14 03:32:31;;;;;;;41.78;28.13;;;;;;;;;;5056297;28;20533;-64
2022/04/14 03:34:57;;;;;;;47.10;29.42;;;;;;;;;;5073671;28;20044;-64
2022/04/14 03:37:23;;;;;;;64.07;33.92;;;;;;;;;;5073686;28;20041;-65
2022/04/14 03:39:48;;;;;;;53.70;30.50;;;8.80;99.90;;;;;;5039047;28;20051;-76
2022/04/14 03:42:14;;;;;;;56.92;32.00;;;;;;;;;;5073990;28;20048;-72
2022/04/14 03:44:40;;;;;;;93.40;39.95;;;8.70;99.90;;;;;;5073496;28;20468;-73
2022/04/14 03:47:06;;;;;;;75.03;39.42;;;8.60;99.90;;;;;;5055711;28;20131;-73
2022/04/14 03:49:32;;;;;;;68.60;36.97;;;9.00;99.90;;;;;;5073356;28;20032;-73
2022/04/14 03:51:58;;;;;;;94.97;44.42;;;9.80;99.90;;;;;;5073593;28;20032;-73
2022/04/14 03:54:24;;;;;;;83.93;41.42;;;;;;;;;;5073557;28;20090;-73
2022/04/14 03:56:50;;;;;;;75.88;39.70;;;;;;;;;;5073057;28;20051;-72
2022/04/14 03:59:16;;;;;;;129.15;48.70;;;;;;;;;;5073407;28;20079;-73
2022/04/14 04:01:43;;;;;;;204.52;45.78;;;;;;;;;;5073195;28;20061;-75
2022/04/14 04:04:09;;;;;;;176.30;49.80;;;;;;;;;;5073111;28;20483;-76
2022/04/14 04:06:36;;;;;;;90.07;44.05;;;8.70;99.90;;;;;;5073406;28;20033;-75
2022/04/14 04:09:03;;;;;;;88.93;44.17;;;;;;;;;;5073276;28;20083;-76
2022/04/14 04:11:29;;;;;;;96.38;45.28;;;;;;;;;;5073352;28;20094;-76
2022/04/14 04:13:55;;;;;;;81.93;40.65;;;;;;;;;;5073238;28;20040;-76
2022/04/14 04:16:22;;;;;;;89.65;40.25;;;9.00;99.90;;;;;;5073134;28;20044;-76
2022/04/14 04:18:48;;;;;;;75.18;42.25;;;;;;;;;;5055024;28;20373;-75
2022/04/14 04:21:15;;;;;;;68.93;37.53;;;;;;;;;;5054772;28;20044;-75
2022/04/14 04:23:40;;;;;;;145.77;54.95;;;8.70;99.90;;;;;;5073491;28;20368;-75
2022/04/14 04:26:06;;;;;;;73.10;38.78;;;;;;;;;;5054901;28;20051;-73
2022/04/14 04:28:32;;;;;;;196.43;46.28;;;;;;;;;;5072936;28;20039;-74
2022/04/14 04:30:58;;;;;;;134.40;45.75;;;;;;;;;;5072820;28;20127;-74
2022/04/14 04:33:24;;;;;;;109.25;44.72;;;8.50;99.90;;;;;;5073055;28;20124;-74
2022/04/14 04:35:51;;;;;;;149.75;44.13;;;8.80;99.90;;;;;;5072727;28;20462;-74
2022/04/14 04:38:17;;;;;;;231.50;53.92;;;9.00;99.90;;;;;;5072695;28;20139;-73
2022/04/14 04:40:43;;;;;;;118.25;41.97;;;8.80;99.90;;;;;;5072742;28;20119;-73
2022/04/14 04:43:09;;;;;;;135.20;48.20;;;;;;;;;;5072761;28;20139;-73
2022/04/14 04:45:37;;;;;;;156.82;45.45;;;8.40;99.90;;;;;;5072485;28;20045;-74
2022/04/14 04:48:04;;;;;;;96.05;43.83;;;;;;;;;;5072593;28;20076;-74
2022/04/14 04:50:30;;;;;;;86.57;41.17;;;8.60;99.90;;;;;;5054090;28;20075;-74
2022/04/14 04:52:57;;;;;;;83.75;44.20;;;8.70;99.90;;;;;;5072727;28;20122;-73
2022/04/14 04:55:23;;;;;;;76.20;40.65;;;;;;;;;;5072559;28;20428;-74
2022/04/14 04:57:49;;;;;;;81.35;42.03;;;;;;;;;;5072020;28;20491;-74
2022/04/14 05:00:15;;;;;;;107.03;48.63;;;;;;;;;;5072308;28;20047;-74
2022/04/14 05:02:41;;;;;;;87.10;44.72;;;;;;;;;;5037368;28;20052;-73
2022/04/14 05:05:08;;;;;;;132.23;55.22;;;8.60;99.90;;;;;;5053872;28;20098;-75
2022/04/14 05:07:33;;;;;;;98.20;47.60;;;8.40;99.90;;;;;;5053169;28;20040;-74
2022/04/14 05:09:59;;;;;;;119.00;50.35;;;;;;;;;;5072022;28;20043;-74
2022/04/14 05:12:25;;;;;;;109.95;51.72;;;;;;;;;;5072086;28;20063;-77
2022/04/14 05:14:52;;;;;;;158.23;55.40;;;;;;;;;;5071966;28;20080;-78
2022/04/14 05:17:18;;;;;;;100.15;48.05;;;8.60;99.90;;;;;;5045592;28;20048;-77
2022/04/14 05:19:44;;;;;;;152.77;54.53;;;8.60;99.90;;;;;;5071516;28;20040;-77
2022/04/14 05:22:10;;;;;;;355.60;62.72;;;8.90;99.90;;;;;;5053426;28;20056;-77
2022/04/14 05:24:36;;;;;;;565.50;87.95;;;;;;;;;;5053574;28;20047;-78
2022/04/14 05:27:02;;;;;;;446.33;63.40;;;;;;;;;;5071223;28;20049;-77
2022/04/14 05:29:28;;;;;;;238.55;52.70;;;9.10;99.90;;;;;;5053220;28;20471;-72
2022/04/14 05:31:53;;;;;;;252.80;55.10;;;8.90;99.90;;;;;;5053411;28;20047;-79
2022/04/14 05:34:19;;;;;;;310.10;55.42;;;;;;;;;;5053532;28;20087;-79
2022/04/14 05:36:45;;;;;;;430.55;67.07;;;8.80;99.90;;;;;;5071520;28;20040;-62
2022/04/14 05:39:12;;;;;;;201.07;52.33;;;;;;;;;;5053321;28;20052;-61
2022/04/14 05:41:37;;;;;;;504.15;69.28;;;8.80;99.90;;;;;;5070903;28;20399;-62
2022/04/14 05:44:06;;;;;;;262.17;53.10;;;9.50;99.90;;;;;;5071123;28;20044;-62
2022/04/14 05:46:32;;;;;;;215.05;46.88;;;;;;;;;;5053088;28;20125;-62
2022/04/14 05:48:58;;;;;;;542.58;73.40;;;;;;;;;;5052941;28;20503;-63
2022/04/14 05:51:25;;;;;;;371.02;56.38;;;;;;;;;;5052925;28;20052;-62
2022/04/14 05:53:53;;;;;;;239.07;46.25;;;;;;;;;;5020129;28;20463;-62
2022/04/14 05:56:19;;;;;;;305.42;52.53;;;9.30;99.90;;;;;;5069826;28;20048;-62
2022/04/14 05:58:45;;;;;;;234.93;50.47;;;;;;;;;;5070413;28;20040;-62
2022/04/14 06:01:12;;;;;;;256.42;41.85;;;9.70;99.90;;;;;;5070295;28;20056;-81
2022/04/14 06:03:39;;;;;;;96.30;36.42;;;9.90;99.90;;;;;;5037880;28;20049;-82
2022/04/14 06:06:05;;;;;;;87.43;36.22;;;10.30;99.90;;;;;;5054142;28;20052;-78
2022/04/14 06:08:31;;;;;;;49.70;31.40;;;;;;;;;;5052871;28;20395;-77
2022/04/14 06:10:57;;;;;;;46.53;28.75;;;10.80;99.90;;;;;;5071275;28;20036;-81
2022/04/14 06:13:23;;;;;;;47.63;27.50;;;;;;;;;;5071663;28;20062;-78
2022/04/14 06:15:51;;;;;;;37.63;26.77;;;;;;;;;;5071103;28;20040;-81
2022/04/14 06:18:18;;;;;;;40.03;27.08;;;;;;;;;;5053241;28;20348;-82
2022/04/14 06:20:47;;;;;;;36.97;25.67;;;13.80;99.90;;;;;;5052505;28;20105;-63
2022/04/14 06:23:16;;;;;;;29.55;22.15;;;15.00;99.90;;;;;;5070703;28;20090;-63
2022/04/14 06:25:45;;;;;;;28.60;21.55;;;15.40;99.90;;;;;;5070746;28;20390;-63
2022/04/14 06:28:11;;;;;;;27.65;20.92;;;;;;;;;;5052575;28;20037;-63
2022/04/14 06:30:37;;;;;;;32.00;21.20;;;;;;;;;;5052552;28;20519;-63
2022/04/14 06:33:04;;;;;;;28.73;19.73;;;17.80;99.90;;;;;;5052047;28;20040;-63
2022/04/14 06:35:30;;;;;;;25.33;18.73;;;;;;;;;;5052717;28;20046;-63
2022/04/14 06:37:56;;;;;;;29.02;20.67;;;19.00;99.90;;;;;;5052476;28;20045;-63
2022/04/14 06:40:23;;;;;;;26.50;20.77;;;19.60;99.90;;;;;;5052831;28;20116;-78
2022/04/14 06:42:49;;;;;;;26.20;20.27;;;;;;;;;;5070436;28;20498;-78
2022/04/14 06:45:17;;;;;;;31.08;21.35;;;20.60;99.90;;;;;;5071016;28;20041;-63
2022/04/14 06:47:43;;;;;;;30.40;20.40;;;;;;;;;;5070493;28;20040;-63
2022/04/14 06:50:09;;;;;;;26.52;20.65;;;21.50;99.90;;;;;;5035652;28;20040;-63
2022/04/14 06:52:38;;;;;;;29.90;21.00;;;21.60;99.90;;;;;;5052227;28;20044;-63
2022/04/14 06:55:04;;;;;;;28.98;20.95;;;22.30;96.60;;;;;;5070129;28;20049;-62
2022/04/14 06:57:31;;;;;;;29.35;21.25;;;;;;;;;;5052200;28;20119;-63
2022/04/14 06:59:57;;;;;;;33.05;20.85;;;;;;;;;;5070361;28;20335;-63
2022/04/14 07:02:23;;;;;;;28.10;20.35;;;;;;;;;;5069881;28;20080;-63
2022/04/14 07:04:52;;;;;;;27.20;19.75;;;;;;;;;;5070278;28;20124;-63
2022/04/14 07:07:18;;;;;;;32.00;20.88;;;23.90;76.40;;;;;;5052136;28;20040;-63
2022/04/14 07:09:44;;;;;;;27.15;20.05;;;24.10;79.30;;;;;;5052089;28;20048;-63
2022/04/14 07:12:10;;;;;;;32.53;19.60;;;24.80;79.60;;;;;;5052246;28;20076;-63
2022/04/14 07:14:38;;;;;;;28.35;19.80;;;;;;;;;;5070084;28;20153;-63
2022/04/14 07:17:04;;;;;;;28.83;18.80;;;;;;;;;;5052189;28;20052;-63
2022/04/14 07:19:31;;;;;;;32.67;19.80;;;;;;;;;;5070133;28;20047;-82
2022/04/14 07:21:57;;;;;;;26.90;18.83;;;;;;;;;;5070342;28;20094;-82
2022/04/14 07:24:22;;;;;;;26.23;19.60;;;24.00;79.10;;;;;;5052754;28;20048;-84
2022/04/14 07:26:48;;;;;;;34.25;22.02;;;;;;;;;;5070343;28;20033;-82
2022/04/14 07:29:16;;;;;;;27.85;19.65;;;25.10;68.20;;;;;;5070309;28;20041;-82
2022/04/14 07:31:42;;;;;;;27.30;19.73;;;;;;;;;;5071893;28;20494;-82
2022/04/14 07:34:10;;;;;;;29.65;20.38;;;24.60;66.80;;;;;;5056013;28;20044;-81
2022/04/14 07:36:36;;;;;;;29.48;18.98;;;;;;;;;;5056163;28;20052;-79
2022/04/14 07:39:03;;;;;;;32.78;20.10;;;25.50;74.80;;;;;;5073688;28;20041;-63
2022/04/14 07:41:29;;;;;;;28.27;19.33;;;;;;;;;;5055690;28;20066;-63
2022/04/14 07:43:56;;;;;;;28.90;19.10;;;;;;;;;;5055327;28;20044;-63
2022/04/14 07:46:23;;;;;;;29.73;19.73;;;;;;;;;;5055615;28;20051;-63
2022/04/14 07:48:49;;;;;;;32.22;17.88;;;;;;;;;;5073729;28;20033;-63
2022/04/14 07:51:14;;;;;;;27.55;18.83;;;25.60;64.30;;;;;;5073281;28;20372;-63
2022/04/14 07:53:40;;;;;;;24.00;16.75;;;;;;;;;;5055129;28;20063;-63
2022/04/14 07:56:07;;;;;;;29.25;17.65;;;25.40;72.80;;;;;;5055194;28;20051;-63
2022/04/14 07:58:38;;;;;;;24.13;16.88;;;25.10;67.60;;;;;;5055828;28;20388;-63
2022/04/14 08:01:04;;;;;;;25.10;16.10;;;;;;;;;;5073042;28;20056;-63
2022/04/14 08:03:32;;;;;;;23.77;14.82;;;;;;;;;;5073414;28;20048;-63
2022/04/14 08:05:57;;;;;;;24.70;14.73;;;23.90;73.30;;;;;;5071848;28;20057;-63
2022/04/14 08:08:24;;;;;;;26.58;15.68;;;23.70;80.00;;;;;;5073188;28;20449;-63
2022/04/14 08:10:53;;;;;;;20.75;13.63;;;;;;;;;;5055330;28;20502;-63
2022/04/14 08:13:19;;;;;;;27.92;14.35;;;;;;;;;;5054904;28;20476;-63
2022/04/14 08:15:45;;;;;;;22.38;15.18;;;23.10;85.90;;;;;;5072901;28;20041;-64
2022/04/14 08:18:11;;;;;;;21.92;14.15;;;23.40;84.30;;;;;;5054670;28;20102;-64
2022/04/14 08:20:41;;;;;;;18.63;13.27;;;22.80;72.60;;;;;;5054418;28;20043;-63
2022/04/14 08:23:12;;;;;;;19.27;13.75;;;22.70;74.00;;;;;;5072535;28;20131;-63
2022/04/14 08:25:39;;;;;;;19.10;13.13;;;;;;;;;;5054346;28;20098;-63
2022/04/14 08:28:05;;;;;;;19.50;13.60;;;22.20;77.80;;;;;;5072380;28;20504;-64
2022/04/14 08:30:32;;;;;;;20.05;13.00;;;22.20;78.90;;;;;;5037966;28;20072;-64
2022/04/14 08:33:03;;;;;;;20.50;13.88;;;22.70;94.10;;;;;;5054660;28;20125;-64
2022/04/14 08:35:31;;;;;;;17.73;12.98;;;22.30;79.80;;;;;;5054345;28;20056;-64
2022/04/14 08:37:57;;;;;;;19.83;14.32;;;21.40;92.80;;;;;;5072383;28;20044;-64
2022/04/14 08:40:25;;;;;;;17.73;12.35;;;22.30;80.80;;;;;;5072682;28;20120;-64
2022/04/14 08:43:00;;;;;;;17.95;12.10;;;22.30;80.00;;;;;;5054582;28;20041;-64
2022/04/14 08:45:30;;;;;;;15.15;11.52;;;22.50;79.90;;;;;;5072190;28;20045;-64
2022/04/14 08:47:57;;;;;;;21.35;13.40;;;22.30;80.60;;;;;;5072308;28;20097;-64
2022/04/14 08:50:24;;;;;;;20.55;13.05;;;22.10;81.40;;;;;;5054159;28;20071;-64
2022/04/14 08:52:51;;;;;;;18.67;11.93;;;;;;;;;;5072451;28;20045;-64
2022/04/14 08:55:17;;;;;;;19.55;12.57;;;;;;;;;;5071897;28;20059;-64
2022/04/14 08:57:43;;;;;;;16.50;11.80;;;;;;;;;;5053833;28;20048;-65
2022/04/14 09:00:16;;;;;;;19.02;12.05;;;22.10;80.00;;;;;;5071741;28;20083;-64
2022/04/14 09:02:45;;;;;;;16.80;12.23;;;;;;;;;;5071957;28;20061;-64
2022/04/14 09:05:14;;;;;;;20.15;13.43;;;22.20;80.00;;;;;;5071661;28;20074;-64
2022/04/14 09:07:40;;;;;;;18.65;12.50;;;21.90;97.10;;;;;;5053779;28;20041;-64
2022/04/14 09:10:07;;;;;;;20.33;12.45;;;22.50;91.00;;;;;;5053734;28;20036;-64
2022/04/14 09:12:36;;;;;;;16.73;12.23;;;22.00;79.70;;;;;;5054094;28;20032;-65
2022/04/14 09:15:02;;;;;;;14.85;11.73;;;;;;;;;;5071856;28;20098;-64
2022/04/14 09:17:29;;;;;;;15.65;11.50;;;;;;;;;;5053663;28;20043;-65
2022/04/14 09:19:55;;;;;;;18.40;12.18;;;;;;;;;;5053892;28;20044;-64
2022/04/14 09:22:21;;;;;;;17.55;11.98;;;;;;;;;;5053834;28;20126;-64
2022/04/14 09:24:48;;;;;;;15.00;10.77;;;21.70;96.80;;;;;;5071714;28;20048;-65
2022/04/14 09:27:34;;;;;;;15.05;11.57;;;21.80;81.40;;;;;;5071442;28;20043;-64
2022/04/14 09:30:05;;;;;;;15.77;11.07;;;21.30;82.70;;;;;;5053753;28;20502;-64
2022/04/14 09:32:33;;;;;;;15.52;11.60;;;21.40;95.70;;;;;;5053511;28;20044;-65
2022/04/14 09:35:03;;;;;;;13.05;10.80;;;21.20;83.80;;;;;;5071430;28;20051;-65
2022/04/14 09:37:29;;;;;;;15.55;11.63;;;21.10;83.70;;;;;;5071567;28;20137;-65
2022/04/14 09:39:59;;;;;;;19.60;12.35;;;17.00;80.10;;;;;;5071515;28;20036;-65
2022/04/14 09:42:31;;;;;;;17.50;12.00;;;20.90;83.80;;;;;;5053366;28;20086;-65
2022/04/14 09:45:35;;;;;;;15.68;11.27;;;20.90;84.30;;;;;;5071106;28;20056;-65
2022/04/14 09:48:05;;;;;;;14.10;10.40;;;20.90;85.00;;;;;;4989737;28;20469;-65
2022/04/14 09:50:43;;;;;;;13.02;10.63;;;20.60;83.30;;;;;;4973587;28;20527;-65
2022/04/14 09:53:14;;;;;;;14.82;10.68;;;20.70;81.60;;;;;;4972896;28;20042;-65
2022/04/14 09:55:55;;;;;;;13.82;11.30;;;20.70;81.70;;;;;;4972682;28;20050;-65
2022/04/14 09:58:23;;;;;;;16.13;10.68;;;20.70;81.90;;;;;;4973069;28;20513;-65
2022/04/14 10:00:56;;;;;;;17.55;11.52;;;21.00;81.20;;;;;;4972032;28;20121;-65
2022/04/14 10:03:23;;;;;;;16.15;11.07;;;21.10;80.90;;;;;;4969919;28;20207;-65
2022/04/14 10:05:55;;;;;;;18.58;10.68;;;21.10;80.40;;;;;;4969603;28;20097;-66
2022/04/14 10:08:25;;;;;;;17.33;11.25;;;21.00;80.00;;;;;;4953101;28;20046;-75
2022/04/14 10:11:09;;;;;;;14.15;11.23;;;20.90;78.50;;;;;;4955196;28;20156;-75
2022/04/14 10:13:39;;;;;;;14.15;10.85;;;20.80;86.90;;;;;;4957871;28;20155;-75
2022/04/14 10:16:07;;;;;;;12.80;10.63;;;20.50;96.80;;;;;;4948359;28;20051;-75
2022/04/14 10:18:33;;;;;;;14.65;11.18;;;;;;;;;;4933992;28;20207;-74
2022/04/14 10:20:59;;;;;;;15.80;11.32;;;;;;;;;;4964408;28;20070;-75
2022/04/14 10:23:27;;;;;;;13.40;10.30;;;20.60;84.20;;;;;;5049101;28;20059;-75
2022/04/14 10:25:54;;;;;;;17.40;10.55;;;20.30;83.20;;;;;;5030047;28;20038;-75
2022/04/14 10:28:20;;;;;;;12.48;9.50;;;;;;;;;;5018653;28;20456;-76
2022/04/14 10:30:56;;;;;;;13.38;9.30;;;20.60;94.90;;;;;;5043087;28;20396;-77
2022/04/14 10:33:23;;;;;;;16.77;9.57;;;20.50;84.00;;;;;;5031282;28;20063;-77
2022/04/14 10:35:52;;;;;;;13.23;10.07;;;21.00;88.80;;;;;;5049555;28;20083;-76
2022/04/14 10:38:19;;;;;;;13.93;10.65;;;;;;;;;;5049202;28;20040;-76
2022/04/14 10:40:48;;;;;;;17.75;10.48;;;20.90;80.00;;;;;;5049059;28;20431;-73
2022/04/14 10:43:19;;;;;;;18.95;10.98;;;20.40;77.00;;;;;;5031317;28;20033;-76
2022/04/14 10:45:53;;;;;;;15.23;10.25;;;20.90;75.80;;;;;;5030928;28;20053;-76
2022/04/14 10:48:45;;;;;;;14.53;10.80;;;20.10;77.50;;;;;;5048655;28;20386;-76
2022/04/14 10:51:29;;;;;;;18.48;12.38;;;20.10;94.70;;;;;;5038690;28;20048;-77
2022/04/14 10:54:03;;;;;;;19.77;12.20;;;20.70;76.90;;;;;;5049833;28;20048;-77
2022/04/14 10:56:41;;;;;;;20.35;13.13;;;20.80;87.30;;;;;;5031193;28;20041;-77
2022/04/14 10:59:12;;;;;;;18.00;12.50;;;20.80;92.20;;;;;;5028173;28;20482;-77
2022/04/14 11:01:53;;;;;;;17.75;11.27;;;20.90;78.80;;;;;;5043304;28;20137;-77
2022/04/14 11:04:42;;;;;;;18.20;12.20;;;20.50;91.10;;;;;;5043900;28;20044;-74
2022/04/14 11:07:08;;;;;;;20.30;13.27;;;;;;;;;;5050349;28;20363;-79
2022/04/14 11:09:42;;;;;;;21.13;14.38;;;20.20;81.00;;;;;;5049099;28;20040;-77
2022/04/14 11:12:08;;;;;;;16.83;12.43;;;;;;;;;;5050390;28;20159;-78
2022/04/14 11:14:35;;;;;;;16.08;11.95;;;19.90;84.40;;;;;;5051311;28;20510;-79
2022/04/14 11:17:03;;;;;;;17.85;12.18;;;;;;;;;;5051147;28;20040;-79
2022/04/14 11:19:29;;;;;;;11.10;8.38;;;19.90;98.30;;;;;;5052592;28;20036;-78
2022/04/14 11:21:59;;;;;;;11.73;7.60;;;19.10;84.70;;;;;;5051152;28;20039;-79
2022/04/14 11:24:36;;;;;;;11.27;7.45;;;19.40;83.20;;;;;;5052003;28;20341;-78
2022/04/14 11:27:11;;;;;;;8.27;6.30;;;19.40;84.20;;;;;;5048371;28;20126;-81
2022/04/14 11:29:41;;;;;;;9.27;5.70;;;;;;;;;;5051497;28;20040;-79
2022/04/14 11:32:07;;;;;;;10.13;6.50;;;19.80;85.10;;;;;;5052700;28;20051;-78
2022/04/14 11:34:37;;;;;;;18.80;6.07;;;20.20;97.80;;;;;;5050757;28;20041;-80
2022/04/14 11:37:03;;;;;;;8.25;5.10;;;20.20;79.40;;;;;;5033522;28;20064;-80
2022/04/14 11:39:30;;;;;;;9.02;5.43;;;20.20;77.40;;;;;;5033759;28;20040;-79
2022/04/14 11:42:10;;;;;;;9.00;5.57;;;20.20;77.30;;;;;;5051936;28;20453;-80
2022/04/14 11:44:37;;;;;;;7.15;4.70;;;;;;;;;;5050782;28;20072;-83
2022/04/14 11:47:04;;;;;;;7.72;4.72;;;20.30;77.40;;;;;;5051043;28;20044;-82
2022/04/14 11:49:34;;;;;;;8.05;4.95;;;20.20;90.40;;;;;;5050956;28;20472;-78
2022/04/14 11:52:07;;;;;;;8.18;5.10;;;20.00;76.20;;;;;;5050827;28;20487;-76
2022/04/14 11:54:33;;;;;;;9.52;5.10;;;;;;;;;;5050350;28;20460;-78
2022/04/14 11:57:10;;;;;;;9.15;4.40;;;19.80;76.20;;;;;;5050559;28;20073;-78
2022/04/14 11:59:41;;;;;;;5.93;3.60;;;19.80;75.20;;;;;;5050707;28;20452;-80
2022/04/14 12:02:16;;;;;;;7.95;3.28;;;20.00;74.80;;;;;;5045938;28;20119;-83
2022/04/14 12:04:54;;;;;;;5.88;3.92;;;20.30;74.10;;;;;;5050270;28;20041;-83
2022/04/14 12:07:22;;;;;;;11.40;4.10;;;20.60;73.80;;;;;;5051910;28;20090;-82
2022/04/14 12:10:06;;;;;;;6.75;4.15;;;20.70;73.30;;;;;;5051774;28;20158;-83
2022/04/14 12:12:34;;;;;;;8.23;4.50;;;20.80;92.40;;;;;;5051879;28;20037;-79
2022/04/14 12:15:01;;;;;;;6.22;4.05;;;20.40;91.20;;;;;;5049908;28;20087;-80
2022/04/14 12:17:26;;;;;;;8.20;4.60;;;20.20;90.00;;;;;;5050256;28;20039;-81
2022/04/14 12:19:59;;;;;;;6.25;4.05;;;19.90;73.90;;;;;;5047555;28;20036;-81
2022/04/14 12:22:38;;;;;;;9.32;4.88;;;19.80;76.80;;;;;;5049439;28;20033;-84
2022/04/14 12:25:09;;;;;;;9.10;4.40;;;19.90;78.20;;;;;;5048921;28;20487;-83
2022/04/14 12:27:37;;;;;;;9.38;4.03;;;;;;;;;;5049014;28;20037;-84
2022/04/14 12:30:09;;;;;;;6.95;3.58;;;20.30;77.90;;;;;;5051553;28;20102;-81
2022/04/14 12:32:35;;;;;;;5.28;3.03;;;;;;;;;;5033365;28;20036;-81
2022/04/14 12:35:03;;;;;;;9.77;3.53;;;;;;;;;;5049794;28;20055;-79
2022/04/14 12:37:40;;;;;;;8.30;3.40;;;20.60;76.00;;;;;;5051724;28;20041;-80
2022/04/14 12:40:13;;;;;;;7.78;3.63;;;20.60;71.30;;;;;;5033051;28;20116;-79
2022/04/14 12:42:41;;;;;;;7.65;3.97;;;20.40;76.10;;;;;;5051033;28;20501;-77
2022/04/14 12:45:12;;;;;;;7.22;3.67;;;20.10;92.00;;;;;;5033023;28;20048;-78
2022/04/14 12:47:40;;;;;;;6.88;3.30;;;19.90;72.20;;;;;;5049673;28;20049;-80
2022/04/14 12:50:10;;;;;;;6.15;3.30;;;19.80;93.00;;;;;;5051081;28;20048;-79
2022/04/14 12:52:39;;;;;;;7.85;3.10;;;;;;;;;;5050859;28;20152;-79
2022/04/14 12:55:06;;;;;;;8.32;3.78;;;;;;;;;;5049389;28;20099;-79
2022/04/14 12:57:33;;;;;;;9.13;3.90;;;;;;;;;;5049729;28;20065;-78
2022/04/14 13:00:03;;;;;;;7.38;3.45;;;19.40;74.70;;;;;;5049461;28;20368;-78
2022/04/14 13:02:29;;;;;;;6.68;3.45;;;19.30;91.20;;;;;;5049319;28;20512;-80
2022/04/14 13:05:13;;;;;;;6.97;3.35;;;19.30;78.20;;;;;;5049398;28;20041;-80
2022/04/14 13:07:47;;;;;;;6.18;2.53;;;19.40;77.00;;;;;;5032800;28;20070;-81
2022/04/14 13:10:13;;;;;;;10.23;3.20;;;;;;;;;;5049384;28;20037;-81
2022/04/14 13:12:39;;;;;;;5.40;2.95;;;;;;;;;;5033025;28;20029;-79
2022/04/14 13:15:06;;;;;;;7.00;3.08;;;19.90;77.90;;;;;;5049301;28;20391;-81